Time;durP1;ratioP1;P1;durP2;ratioP2;P2;SDS_P1;SDS_P2;PMS_P1;PMS_P2;Temp;Humidity;BMP_temperature;BMP_pressure;BME280_temperature;BME280_humidity;BME280_pressure;Samples;Min_cycle;Max_cycle;Signal;HPM_P1;HPM_P2
2023/10/13 00:14:56;;;;;;;14.38;11.48;;;;;;;22.89;55.64;100495.63;41703136;28;20571;-70
2023/10/13 00:34:57;;;;;;;14.77;11.65;;;;;;;22.82;55.58;100495.31;41695783;28;20053;-70
2023/10/13 00:54:59;;;;;;;14.07;11.80;;;;;;;22.76;55.72;100488.75;41704556;28;20049;-70
2023/10/13 01:15:08;;;;;;;15.63;11.85;;;;;;;22.71;55.83;100469.81;41718044;28;20083;-70
2023/10/13 01:35:08;;;;;;;14.45;11.55;;;;;;;22.69;55.62;100488.41;41725187;28;20095;-69
2023/10/13 01:55:11;;;;;;;14.75;11.60;;;;;;;22.63;55.74;100483.66;41702352;28;20053;-70
2023/10/13 02:15:20;;;;;;;16.35;12.30;;;;;;;22.71;55.65;100493.56;41719577;28;20148;-68
2023/10/13 02:35:29;;;;;;;13.30;11.02;;;;;;;22.68;55.64;100497.28;41704520;28;20102;-69
2023/10/13 02:55:31;;;;;;;15.43;11.38;;;;;;;22.65;55.59;100528.38;41701203;28;20041;-69
2023/10/13 03:15:32;;;;;;;13.45;11.07;;;;;;;22.52;56.13;100515.34;41698811;28;20099;-70
2023/10/13 03:35:43;;;;;;;13.48;10.95;;;;;;;22.56;56.71;100487.75;41699552;28;20110;-70
2023/10/13 03:55:48;;;;;;;12.02;10.73;;;;;;;22.63;56.33;100464.31;41671382;28;20047;-69
2023/10/13 04:16:34;;;;;;;12.43;10.57;;;;;;;22.61;55.97;100414.31;41680562;28;20373;-71
2023/10/13 06:38:20;;;;;;;24.33;14.18;;;;;;;22.64;58.36;100609.38;41716353;28;20059;-70
2023/10/13 06:58:23;;;;;;;22.33;14.13;;;;;;;22.55;58.34;100628.56;41716200;28;20056;-69
2023/10/13 07:18:24;;;;;;;22.85;13.05;;;;;;;22.59;58.22;100626.53;41682316;28;20135;-67
2023/10/13 07:38:25;;;;;;;22.23;14.45;;;;;;;22.57;58.19;100618.75;41687337;28;20132;-67
2023/10/13 07:58:27;;;;;;;18.17;13.25;;;;;;;22.65;58.13;100647.97;41683362;28;20060;-67
2023/10/13 08:18:31;;;;;;;17.30;13.55;;;;;;;22.76;58.03;100631.28;41693654;28;20049;-68
2023/10/13 08:38:43;;;;;;;20.80;13.60;;;;;;;22.74;58.01;100637.66;41680935;28;20041;-67
2023/10/13 08:59:22;;;;;;;20.13;13.63;;;;;;;22.85;58.05;100653.47;41679933;28;20045;-66
2023/10/13 09:19:11;;;;;;;20.88;13.02;;;;;;;22.82;58.34;100651.09;41667505;28;20041;-64
2023/10/13 09:39:13;;;;;;;19.60;13.48;;;;;;;22.95;58.41;100633.28;41723053;28;20518;-66
2023/10/13 09:59:20;;;;;;;32.47;12.25;;;;;;;22.97;57.93;100633.16;41737956;28;20045;-65
2023/10/13 10:19:21;;;;;;;24.13;12.90;;;;;;;23.04;57.67;100610.56;41738577;28;20501;-66
2023/10/13 10:39:45;;;;;;;21.15;12.00;;;;;;;23.30;57.05;100582.03;41746852;28;20120;-65
2023/10/13 10:59:46;;;;;;;18.10;11.57;;;;;;;23.46;56.49;100559.59;41740021;28;20061;-67
2023/10/13 11:19:47;;;;;;;16.25;10.85;;;;;;;23.58;56.37;100544.50;41742591;28;20033;-65
2023/10/13 11:39:47;;;;;;;15.38;10.77;;;;;;;23.30;56.92;100528.34;41726161;28;20070;-64
2023/10/13 11:59:56;;;;;;;12.82;9.82;;;;;;;23.23;57.21;100512.19;41716647;28;20503;-67
2023/10/13 12:19:57;;;;;;;14.50;10.40;;;;;;;23.33;56.78;100512.25;41699223;28;20037;-66
2023/10/13 13:00:22;;;;;;;19.65;10.13;;;;;;;23.83;56.63;100464.75;41664920;28;20103;-66
2023/10/13 13:20:28;;;;;;;18.27;10.43;;;;;;;24.11;56.98;100448.28;41715886;28;20045;-67
2023/10/13 13:40:34;;;;;;;15.30;9.73;;;;;;;24.17;56.33;100423.94;41726070;28;20057;-67
2023/10/13 14:00:37;;;;;;;13.93;8.63;;;;;;;24.29;57.30;100429.91;41715268;28;20041;-66
2023/10/13 14:20:39;;;;;;;12.95;8.52;;;;;;;24.28;56.83;100412.38;41708135;28;20049;-64
2023/10/13 14:40:40;;;;;;;23.23;9.02;;;;;;;24.17;57.36;100393.97;41739766;28;20044;-70
2023/10/13 15:00:45;;;;;;;21.98;9.18;;;;;;;23.80;57.74;100392.78;41728055;28;20052;-69
2023/10/13 15:20:46;;;;;;;15.07;9.18;;;;;;;23.74;57.74;100388.91;41729344;28;20045;-70
2023/10/13 15:40:46;;;;;;;12.10;8.35;;;;;;;23.62;57.69;100384.66;41734157;28;20469;-69
2023/10/13 16:00:47;;;;;;;17.35;7.70;;;;;;;23.47;57.49;100376.28;41713204;28;20059;-68
2023/10/13 16:20:50;;;;;;;14.07;8.13;;;;;;;23.31;58.26;100368.88;41718582;28;20386;-67
2023/10/13 16:40:52;;;;;;;10.90;7.30;;;;;;;23.38;57.69;100401.72;41722030;28;20079;-70
2023/10/13 17:00:53;;;;;;;12.95;7.90;;;;;;;23.31;57.74;100396.13;41727246;28;20037;-68
2023/10/13 17:20:55;;;;;;;10.35;6.80;;;;;;;23.27;57.62;100394.72;41719526;28;20057;-67
2023/10/13 17:40:55;;;;;;;11.82;7.07;;;;;;;23.25;57.22;100393.16;41716103;28;20109;-67
2023/10/13 18:00:56;;;;;;;9.65;7.00;;;;;;;23.07;56.88;100343.59;41749801;28;20095;-67
2023/10/13 18:21:03;;;;;;;13.38;6.55;;;;;;;23.22;57.05;100375.78;41734710;28;20060;-69
2023/10/13 18:41:07;;;;;;;12.38;6.93;;;;;;;23.18;57.07;100375.22;41724249;28;20033;-69
2023/10/13 19:01:24;;;;;;;15.27;7.23;;;;;;;22.92;57.33;100329.88;41752268;28;20041;-69
